Time;durP1;ratioP1;P1;durP2;ratioP2;P2;SDS_P1;SDS_P2;PMS_P1;PMS_P2;Temp;Humidity;BMP_temperature;BMP_pressure;BME280_temperature;BME280_humidity;BME280_pressure;Samples;Min_cycle;Max_cycle;Signal;HPM_P1;HPM_P2
2023/03/22 00:01:23;;;;;;;13.77;2.20;;;22.70;99.90;;;;;;5065465;28;20186;-73
2023/03/22 00:03:53;;;;;;;14.27;2.27;;;22.40;99.90;;;;;;5074890;28;20195;-74
2023/03/22 00:06:21;;;;;;;7.17;1.93;;;22.30;99.90;;;;;;5073552;28;20210;-75
2023/03/22 00:08:54;;;;;;;11.03;1.90;;;22.30;99.90;;;;;;5074652;28;20189;-73
2023/03/22 00:11:24;;;;;;;10.97;1.90;;;22.30;99.90;;;;;;5058181;28;20195;-73
2023/03/22 00:13:53;;;;;;;11.30;2.33;;;22.30;99.90;;;;;;5053175;28;20228;-74
2023/03/22 00:16:22;;;;;;;13.10;2.63;;;22.30;99.90;;;;;;5054176;28;20195;-72
2023/03/22 00:18:49;;;;;;;8.67;2.17;;;22.40;99.90;;;;;;5054564;28;20243;-75
2023/03/22 00:21:18;;;;;;;7.80;1.97;;;22.50;99.90;;;;;;5039785;28;20232;-75
2023/03/22 00:23:46;;;;;;;8.50;2.03;;;22.60;99.90;;;;;;5052092;28;20258;-74
2023/03/22 00:26:14;;;;;;;8.73;1.93;;;22.80;99.90;;;;;;5061036;28;20208;-74
2023/03/22 00:28:42;;;;;;;18.70;2.60;;;23.00;99.90;;;;;;5054334;28;20175;-74
2023/03/22 00:31:11;;;;;;;13.23;1.83;;;23.20;99.90;;;;;;5066938;28;20183;-75
2023/03/22 00:33:39;;;;;;;8.27;1.60;;;23.30;99.90;;;;;;5073474;28;20633;-73
2023/03/22 00:36:10;;;;;;;13.70;1.83;;;23.50;99.90;;;;;;5034491;28;20180;-75
2023/03/22 00:38:38;;;;;;;10.13;1.43;;;23.20;99.90;;;;;;5052275;28;20263;-75
2023/03/22 00:41:21;;;;;;;5.83;1.97;;;23.20;99.90;;;;;;5052978;28;20597;-74
2023/03/22 00:43:50;;;;;;;9.70;1.87;;;23.10;99.90;;;;;;5053443;28;20177;-74
2023/03/22 00:46:20;;;;;;;11.80;2.10;;;23.00;99.90;;;;;;5052449;28;20215;-75
2023/03/22 00:48:49;;;;;;;14.53;2.67;;;23.10;99.90;;;;;;5052649;28;20237;-72
2023/03/22 00:51:17;;;;;;;9.30;1.87;;;23.20;99.90;;;;;;5095666;28;20198;-74
2023/03/22 00:53:48;;;;;;;9.40;1.53;;;23.20;99.90;;;;;;5043172;28;20188;-74
2023/03/22 00:56:17;;;;;;;4.67;1.73;;;23.30;99.90;;;;;;5053656;28;20200;-75
2023/03/22 00:58:45;;;;;;;7.87;1.63;;;23.30;99.90;;;;;;5086366;28;20539;-75
2023/03/22 01:01:13;;;;;;;9.30;1.67;;;23.50;99.90;;;;;;5065898;28;20191;-74
2023/03/22 01:03:42;;;;;;;9.00;2.03;;;23.40;99.90;;;;;;5073852;28;20214;-73
2023/03/22 01:06:11;;;;;;;7.77;1.90;;;23.50;99.90;;;;;;5062326;28;20252;-73
2023/03/22 01:08:38;;;;;;;9.13;1.73;;;23.70;99.90;;;;;;5049509;28;20691;-74
2023/03/22 01:11:07;;;;;;;9.37;1.90;;;23.50;99.90;;;;;;5069825;28;20226;-74
2023/03/22 01:13:40;;;;;;;9.37;1.90;;;23.50;99.90;;;;;;5044272;28;20582;-74
2023/03/22 01:16:09;;;;;;;10.93;1.30;;;23.70;99.90;;;;;;5068944;28;20192;-74
2023/03/22 01:18:37;;;;;;;9.50;2.03;;;23.70;99.90;;;;;;5052318;28;20226;-73
2023/03/22 01:21:05;;;;;;;6.93;1.77;;;24.10;99.90;;;;;;5056484;28;20257;-74
2023/03/22 01:23:33;;;;;;;9.33;1.63;;;24.20;99.90;;;;;;5073239;28;20183;-73
2023/03/22 01:26:01;;;;;;;10.83;1.83;;;24.20;99.90;;;;;;5060742;28;20192;-74
2023/03/22 01:28:30;;;;;;;4.10;1.50;;;24.20;99.90;;;;;;5055314;28;20192;-74
2023/03/22 01:31:01;;;;;;;8.77;1.67;;;24.40;99.90;;;;;;5053097;28;20175;-75
2023/03/22 01:33:29;;;;;;;9.83;1.97;;;24.20;99.90;;;;;;5052223;28;20184;-75
2023/03/22 01:35:57;;;;;;;6.97;1.50;;;24.40;99.90;;;;;;5052874;28;20214;-72
2023/03/22 01:38:25;;;;;;;7.23;1.70;;;24.70;99.90;;;;;;5066592;28;20191;-74
2023/03/22 01:40:53;;;;;;;4.83;1.50;;;24.80;99.90;;;;;;5073036;28;20165;-75
2023/03/22 01:43:20;;;;;;;12.03;2.13;;;24.90;99.90;;;;;;5072952;28;20191;-74
2023/03/22 01:45:50;;;;;;;5.67;1.70;;;24.60;99.90;;;;;;5071410;28;20578;-73
2023/03/22 01:48:21;;;;;;;13.80;1.70;;;24.30;99.90;;;;;;5052580;28;20338;-73
2023/03/22 01:51:01;;;;;;;12.50;1.60;;;24.10;99.90;;;;;;5052719;28;20181;-73
2023/03/22 01:53:34;;;;;;;8.47;1.97;;;24.00;99.90;;;;;;5053174;28;20188;-73
2023/03/22 01:56:03;;;;;;;7.57;1.90;;;23.90;99.90;;;;;;5052764;28;20183;-73
2023/03/22 01:58:33;;;;;;;6.63;1.53;;;24.10;99.90;;;;;;5053826;28;20199;-74
2023/03/22 02:01:01;;;;;;;6.47;1.40;;;24.00;99.90;;;;;;5071945;28;20207;-71
2023/03/22 02:03:37;;;;;;;8.93;1.93;;;23.90;99.90;;;;;;5055484;28;20195;-75
2023/03/22 02:06:05;;;;;;;8.37;2.27;;;23.70;99.90;;;;;;5064112;28;20225;-74
2023/03/22 02:08:33;;;;;;;10.07;2.20;;;23.70;99.90;;;;;;5059015;28;20248;-72
2023/03/22 02:11:02;;;;;;;12.57;2.10;;;23.60;99.90;;;;;;5058650;28;20176;-73
2023/03/22 02:13:46;;;;;;;5.53;1.67;;;23.60;99.90;;;;;;5061228;28;20228;-73
2023/03/22 02:16:26;;;;;;;7.10;1.67;;;23.70;99.90;;;;;;5052446;28;20172;-73
2023/03/22 02:19:32;;;;;;;8.53;1.57;;;23.90;99.90;;;;;;5054650;28;20262;-73
2023/03/22 02:22:08;;;;;;;6.30;1.60;;;23.80;99.90;;;;;;5072110;28;20214;-72
2023/03/22 02:24:57;;;;;;;12.57;2.53;;;23.90;99.90;;;;;;5072353;28;20167;-73
2023/03/22 02:27:34;;;;;;;6.03;2.10;;;24.00;99.90;;;;;;5070208;28;20248;-73
2023/03/22 02:30:20;;;;;;;7.17;2.10;;;24.10;99.90;;;;;;5071032;28;20206;-74
2023/03/22 02:33:05;;;;;;;11.20;2.27;;;24.10;99.90;;;;;;5072156;28;20226;-73
2023/03/22 02:35:48;;;;;;;10.37;1.53;;;24.10;99.90;;;;;;5072062;28;20637;-73
2023/03/22 02:38:37;;;;;;;11.53;2.17;;;23.90;99.90;;;;;;5072193;28;20670;-73
2023/03/22 02:41:05;;;;;;;11.87;2.20;;;24.00;99.90;;;;;;5046005;28;20202;-72
2023/03/22 02:43:50;;;;;;;10.87;1.83;;;24.10;99.90;;;;;;5067608;28;20198;-72
2023/03/22 02:46:32;;;;;;;11.73;2.47;;;24.20;99.90;;;;;;5052505;28;20298;-71
2023/03/22 02:49:27;;;;;;;7.60;1.80;;;24.10;99.90;;;;;;5063102;28;20732;-72
2023/03/22 02:52:24;;;;;;;5.87;1.70;;;23.90;99.90;;;;;;5058652;28;20529;-74
2023/03/22 02:55:12;;;;;;;6.20;2.00;;;23.90;99.90;;;;;;5070870;28;20202;-74
2023/03/22 02:57:46;;;;;;;9.47;2.03;;;24.10;99.90;;;;;;5057116;28;20287;-73
2023/03/22 03:00:15;;;;;;;9.57;1.50;;;24.20;99.90;;;;;;5066299;28;20187;-74
2023/03/22 03:02:49;;;;;;;6.00;1.90;;;24.10;99.90;;;;;;5063204;28;20329;-73
2023/03/22 03:05:19;;;;;;;9.03;1.70;;;24.10;99.90;;;;;;5058552;28;20271;-73
2023/03/22 03:07:55;;;;;;;8.43;1.67;;;24.00;99.90;;;;;;5051196;28;20587;-73
2023/03/22 03:10:23;;;;;;;7.23;1.60;;;24.00;99.90;;;;;;5037105;28;20180;-74
2023/03/22 03:12:51;;;;;;;10.40;1.70;;;24.10;99.90;;;;;;5051452;28;20203;-73
2023/03/22 03:15:23;;;;;;;6.10;1.50;;;24.10;99.90;;;;;;5034973;28;20193;-73
2023/03/22 03:18:28;;;;;;;8.30;1.50;;;24.10;99.90;;;;;;5055036;28;20187;-73
2023/03/22 03:21:16;;;;;;;7.73;2.27;;;24.10;99.90;;;;;;5071506;28;20596;-73
2023/03/22 03:24:14;;;;;;;9.53;2.00;;;23.90;99.90;;;;;;5053906;28;20184;-73
2023/03/22 03:26:58;;;;;;;14.73;2.03;;;23.90;99.90;;;;;;5056546;28;20252;-73
2023/03/22 03:29:31;;;;;;;9.47;2.00;;;24.00;99.90;;;;;;5041227;28;20649;-73
2023/03/22 03:32:15;;;;;;;8.63;2.20;;;24.40;99.90;;;;;;5045600;28;20185;-73
2023/03/22 03:34:48;;;;;;;7.53;1.80;;;24.90;99.90;;;;;;5071834;28;20236;-74
2023/03/22 03:37:22;;;;;;;8.87;1.33;;;25.20;99.90;;;;;;5042635;28;20181;-74
2023/03/22 03:40:16;;;;;;;7.67;2.27;;;25.10;99.90;;;;;;5066058;28;20652;-74
2023/03/22 03:42:51;;;;;;;12.20;1.67;;;25.30;99.90;;;;;;5071811;28;20192;-73
2023/03/22 03:45:21;;;;;;;6.73;2.83;;;25.30;99.90;;;;;;5072203;28;20191;-74
2023/03/22 03:47:55;;;;;;;8.60;1.50;;;25.20;99.90;;;;;;5072622;28;20246;-74
2023/03/22 03:50:24;;;;;;;8.93;2.03;;;25.00;99.90;;;;;;5052635;28;20272;-75
2023/03/22 03:52:54;;;;;;;8.70;1.80;;;24.80;99.90;;;;;;5068744;28;20184;-74
2023/03/22 03:55:23;;;;;;;4.93;1.20;;;24.80;99.90;;;;;;5073813;28;20351;-75
2023/03/22 03:57:50;;;;;;;9.13;2.50;;;24.90;99.90;;;;;;5059922;28;20279;-74
2023/03/22 04:00:18;;;;;;;10.10;1.97;;;25.00;99.90;;;;;;5057310;28;20181;-74
2023/03/22 04:02:46;;;;;;;7.83;1.50;;;25.00;99.90;;;;;;5048299;28;20192;-74
2023/03/22 04:05:15;;;;;;;9.10;2.60;;;24.80;99.90;;;;;;5070223;28;20902;-74
2023/03/22 04:07:42;;;;;;;6.30;1.80;;;24.80;99.90;;;;;;5064341;28;20223;-72
2023/03/22 04:10:10;;;;;;;6.30;1.67;;;24.80;99.90;;;;;;5062285;28;20180;-73
2023/03/22 04:12:37;;;;;;;8.47;2.27;;;25.00;99.90;;;;;;5064855;28;20184;-73
2023/03/22 04:15:05;;;;;;;8.50;1.50;;;25.00;99.90;;;;;;5053776;28;20231;-73
2023/03/22 04:17:33;;;;;;;6.77;1.67;;;25.00;99.90;;;;;;5067833;28;20619;-74
2023/03/22 04:20:03;;;;;;;7.23;1.53;;;25.00;99.90;;;;;;5063098;28;20676;-74
2023/03/22 04:22:33;;;;;;;5.63;1.57;;;25.10;99.90;;;;;;5059037;28;20238;-72
2023/03/22 04:25:05;;;;;;;12.53;2.00;;;24.90;99.90;;;;;;5054399;28;20173;-74
2023/03/22 04:27:33;;;;;;;11.20;2.40;;;24.80;99.90;;;;;;5054374;28;20255;-72
2023/03/22 04:30:00;;;;;;;9.20;1.90;;;24.60;99.90;;;;;;5054332;28;20385;-74
2023/03/22 04:32:28;;;;;;;12.27;2.20;;;24.40;99.90;;;;;;5056429;28;20188;-74
2023/03/22 04:34:56;;;;;;;8.20;1.80;;;24.60;99.90;;;;;;5054232;28;20542;-74
2023/03/22 04:37:25;;;;;;;11.93;2.00;;;24.80;99.90;;;;;;5062463;28;20199;-73
2023/03/22 04:39:53;;;;;;;9.90;2.33;;;25.00;99.90;;;;;;5063900;28;20225;-72
2023/03/22 04:42:21;;;;;;;5.83;1.80;;;25.00;99.90;;;;;;5069490;28;20192;-72
2023/03/22 04:44:49;;;;;;;11.50;2.20;;;25.10;99.90;;;;;;5069632;28;20254;-72
2023/03/22 04:47:17;;;;;;;8.13;1.67;;;25.20;99.90;;;;;;5061522;28;20763;-73
2023/03/22 04:49:45;;;;;;;10.43;2.07;;;25.20;99.90;;;;;;5061372;28;20195;-72
2023/03/22 04:52:13;;;;;;;9.43;2.00;;;25.20;99.90;;;;;;5065400;28;20199;-72
2023/03/22 04:54:41;;;;;;;6.03;1.80;;;25.00;99.90;;;;;;5074254;28;20176;-71
2023/03/22 04:57:08;;;;;;;7.30;1.70;;;25.00;99.90;;;;;;5073734;28;20545;-72
2023/03/22 04:59:36;;;;;;;6.90;1.77;;;24.90;99.90;;;;;;5075012;28;20522;-72
2023/03/22 05:02:04;;;;;;;11.30;2.00;;;24.70;99.90;;;;;;5074913;28;20199;-73
2023/03/22 05:04:32;;;;;;;6.20;1.80;;;24.60;99.90;;;;;;5074659;28;20250;-72
2023/03/22 05:06:59;;;;;;;11.57;2.07;;;24.50;99.90;;;;;;5074657;28;20707;-73
2023/03/22 05:09:27;;;;;;;6.27;1.70;;;24.50;99.90;;;;;;5074794;28;20203;-74
2023/03/22 05:11:55;;;;;;;3.57;1.60;;;24.60;99.90;;;;;;5074866;28;20180;-73
2023/03/22 05:14:23;;;;;;;8.77;2.10;;;24.50;99.90;;;;;;5074389;28;20310;-74
2023/03/22 05:16:50;;;;;;;10.23;2.53;;;24.40;99.90;;;;;;5075324;28;20202;-72
2023/03/22 05:19:21;;;;;;;4.40;1.50;;;24.40;99.90;;;;;;5074591;28;20226;-73
2023/03/22 05:21:56;;;;;;;4.70;1.43;;;24.30;99.90;;;;;;5074635;28;20172;-74
2023/03/22 05:24:24;;;;;;;5.73;1.40;;;24.30;99.90;;;;;;5074326;28;20259;-72
2023/03/22 05:26:52;;;;;;;9.40;2.33;;;24.20;99.90;;;;;;5074294;28;20556;-72
2023/03/22 05:29:25;;;;;;;7.33;1.97;;;24.20;99.90;;;;;;5074564;28;20597;-71
2023/03/22 05:31:53;;;;;;;9.53;1.67;;;24.20;99.90;;;;;;5074332;28;20536;-72
2023/03/22 05:34:21;;;;;;;12.23;2.43;;;24.10;99.90;;;;;;5074320;28;20195;-73
2023/03/22 05:36:50;;;;;;;8.17;1.93;;;24.10;99.90;;;;;;5074262;28;20533;-73
2023/03/22 05:39:19;;;;;;;10.40;2.03;;;24.10;99.90;;;;;;5072934;28;20270;-73
2023/03/22 05:41:47;;;;;;;10.50;3.10;;;24.00;99.90;;;;;;5072980;28;20174;-72
2023/03/22 05:44:15;;;;;;;6.33;1.80;;;23.90;99.90;;;;;;5072948;28;20262;-72
2023/03/22 05:46:42;;;;;;;8.80;2.40;;;23.80;99.90;;;;;;5073955;28;20215;-72
2023/03/22 05:49:10;;;;;;;8.37;1.90;;;23.70;99.90;;;;;;5072835;28;20233;-73
2023/03/22 05:51:40;;;;;;;8.87;2.53;;;23.70;99.90;;;;;;5072814;28;20594;-72
2023/03/22 05:54:11;;;;;;;12.00;2.50;;;23.70;99.90;;;;;;5074084;28;20172;-72
2023/03/22 05:56:39;;;;;;;8.90;2.90;;;23.70;99.90;;;;;;5073417;28;20179;-74
2023/03/22 05:59:10;;;;;;;5.00;1.67;;;23.70;99.90;;;;;;5074144;28;20180;-73
2023/03/22 06:01:38;;;;;;;6.70;2.43;;;23.90;99.90;;;;;;5073724;28;20176;-73
2023/03/22 06:04:06;;;;;;;13.93;3.87;;;23.90;99.90;;;;;;5073764;28;20306;-74
2023/03/22 06:06:33;;;;;;;14.23;6.20;;;23.80;99.90;;;;;;5072425;28;20541;-72
2023/03/22 06:09:01;;;;;;;8.60;2.70;;;23.80;99.90;;;;;;5073594;28;20236;-73
2023/03/22 06:11:34;;;;;;;12.03;2.13;;;23.60;99.90;;;;;;5073324;28;20175;-73
2023/03/22 06:14:01;;;;;;;9.60;2.47;;;23.60;99.90;;;;;;5072027;28;20843;-74
2023/03/22 06:16:29;;;;;;;9.23;2.10;;;23.50;99.90;;;;;;5073365;28;20184;-74
2023/03/22 06:18:57;;;;;;;11.50;2.07;;;23.60;99.90;;;;;;5072908;28;20168;-73
2023/03/22 06:21:25;;;;;;;6.23;1.63;;;23.50;99.90;;;;;;5073181;28;20649;-73
2023/03/22 06:23:52;;;;;;;5.33;1.87;;;23.40;99.90;;;;;;5073184;28;20528;-74
2023/03/22 06:26:20;;;;;;;7.83;2.47;;;23.30;99.90;;;;;;5073382;28;20199;-74
2023/03/22 06:28:48;;;;;;;9.93;2.40;;;23.40;99.90;;;;;;5073121;28;20179;-73
2023/03/22 06:31:15;;;;;;;5.77;2.17;;;23.40;99.90;;;;;;5073329;28;20346;-73
2023/03/22 06:33:44;;;;;;;9.40;2.43;;;23.50;99.90;;;;;;5073263;28;20258;-74
2023/03/22 06:36:12;;;;;;;7.53;2.03;;;23.40;99.90;;;;;;5073254;28;20522;-74
2023/03/22 06:38:39;;;;;;;7.60;2.83;;;23.30;99.90;;;;;;5071956;28;20540;-74
2023/03/22 06:41:07;;;;;;;8.23;2.43;;;23.20;99.90;;;;;;5073169;28;20172;-73
2023/03/22 06:43:35;;;;;;;7.27;1.83;;;23.20;99.90;;;;;;5073021;28;20176;-74
2023/03/22 06:46:03;;;;;;;10.40;2.30;;;23.30;99.90;;;;;;5073161;28;20213;-73
2023/03/22 06:48:36;;;;;;;5.83;2.10;;;23.30;99.90;;;;;;5072877;28;20215;-72
2023/03/22 06:51:04;;;;;;;11.97;2.67;;;23.30;99.90;;;;;;5071750;28;20179;-73
2023/03/22 06:53:31;;;;;;;8.10;2.23;;;23.30;99.90;;;;;;5072990;28;20198;-73
2023/03/22 06:55:59;;;;;;;9.20;2.30;;;23.40;99.90;;;;;;5073082;28;20176;-73
2023/03/22 06:58:27;;;;;;;7.30;2.33;;;23.40;99.90;;;;;;5073213;28;20263;-71
2023/03/22 07:00:58;;;;;;;9.73;2.37;;;23.40;99.90;;;;;;5073035;28;20172;-72
2023/03/22 07:03:25;;;;;;;10.33;2.50;;;23.30;99.90;;;;;;5072900;28;20183;-72
2023/03/22 07:05:59;;;;;;;7.57;1.97;;;23.20;99.90;;;;;;5071581;28;20228;-72
2023/03/22 07:08:27;;;;;;;10.93;2.50;;;23.20;99.90;;;;;;5074793;28;20663;-72
2023/03/22 07:10:55;;;;;;;4.40;1.93;;;23.20;99.90;;;;;;5077119;28;20175;-72
2023/03/22 07:13:23;;;;;;;9.87;2.40;;;23.10;99.90;;;;;;5077038;28;20532;-71
2023/03/22 07:15:54;;;;;;;7.33;2.60;;;23.10;99.90;;;;;;5077017;28;20191;-72
2023/03/22 07:18:23;;;;;;;6.77;2.33;;;23.00;99.90;;;;;;5076804;28;20179;-72
2023/03/22 07:20:54;;;;;;;7.40;1.97;;;22.90;99.90;;;;;;5076972;28;20206;-72
2023/03/22 07:23:22;;;;;;;12.07;2.27;;;22.80;99.90;;;;;;5076786;28;20179;-74
2023/03/22 07:25:50;;;;;;;10.77;2.33;;;22.80;99.90;;;;;;5076956;28;20203;-72
2023/03/22 07:28:18;;;;;;;4.70;1.90;;;22.60;99.90;;;;;;5076732;28;20215;-72
2023/03/22 07:30:46;;;;;;;6.60;2.13;;;22.60;99.90;;;;;;5076833;28;20176;-73
2023/03/22 07:33:14;;;;;;;4.53;1.67;;;22.60;99.90;;;;;;5076716;28;20167;-73
2023/03/22 07:35:42;;;;;;;11.80;2.07;;;22.50;99.90;;;;;;5077098;28;20179;-74
2023/03/22 07:38:09;;;;;;;7.77;1.90;;;22.50;99.90;;;;;;5076895;28;20708;-74
2023/03/22 07:40:37;;;;;;;8.33;2.20;;;22.40;99.90;;;;;;5076401;28;20176;-73
2023/03/22 07:43:05;;;;;;;6.60;1.80;;;22.40;99.90;;;;;;5076476;28;20167;-72
2023/03/22 07:45:33;;;;;;;8.23;1.90;;;22.40;99.90;;;;;;5076312;28;20646;-73
2023/03/22 07:48:01;;;;;;;9.30;2.20;;;22.30;99.90;;;;;;5076236;28;20237;-74
2023/03/22 07:50:28;;;;;;;7.33;2.03;;;22.30;99.90;;;;;;5076328;28;20176;-74
2023/03/22 07:52:56;;;;;;;7.73;2.43;;;22.20;99.90;;;;;;5076439;28;20261;-73
2023/03/22 07:55:24;;;;;;;9.37;2.20;;;22.20;99.90;;;;;;5076240;28;20531;-73
2023/03/22 07:57:52;;;;;;;4.97;2.23;;;22.20;99.90;;;;;;5076231;28;20186;-74
2023/03/22 08:00:21;;;;;;;6.77;2.47;;;22.10;99.90;;;;;;5076036;28;20186;-73
2023/03/22 08:02:51;;;;;;;6.80;2.30;;;22.10;99.90;;;;;;5076152;28;20176;-74
2023/03/22 08:05:21;;;;;;;5.63;2.30;;;22.10;99.90;;;;;;5074721;28;20194;-74
2023/03/22 08:07:50;;;;;;;7.47;2.43;;;22.10;99.90;;;;;;5076050;28;20237;-74
2023/03/22 08:10:18;;;;;;;12.43;3.10;;;22.00;99.90;;;;;;5075855;28;20170;-73
2023/03/22 08:12:45;;;;;;;8.53;2.93;;;22.00;99.90;;;;;;5075831;28;20637;-74
2023/03/22 08:15:14;;;;;;;11.17;3.33;;;22.00;99.90;;;;;;5075591;28;20223;-74
2023/03/22 08:17:42;;;;;;;11.77;3.83;;;22.10;99.90;;;;;;5075912;28;20183;-73
2023/03/22 08:20:11;;;;;;;8.40;3.10;;;22.20;99.90;;;;;;5075377;28;20263;-74
2023/03/22 08:22:39;;;;;;;7.20;3.13;;;22.20;99.90;;;;;;5075646;28;20193;-74
2023/03/22 08:25:07;;;;;;;10.97;3.13;;;22.20;99.90;;;;;;5074388;28;20490;-74
2023/03/22 08:27:35;;;;;;;7.33;2.67;;;22.10;99.90;;;;;;5075469;28;20302;-73
2023/03/22 08:30:04;;;;;;;5.07;2.70;;;22.10;99.90;;;;;;5074360;28;20190;-73
2023/03/22 08:32:33;;;;;;;11.23;3.10;;;22.10;99.90;;;;;;5075577;28;20187;-74
2023/03/22 08:35:01;;;;;;;7.33;2.90;;;22.00;99.90;;;;;;5075391;28;20261;-73
2023/03/22 08:37:29;;;;;;;9.03;2.63;;;22.00;99.90;;;;;;5076420;28;20174;-73
2023/03/22 08:39:57;;;;;;;8.00;2.47;;;21.90;99.90;;;;;;5075815;28;20170;-73
2023/03/22 08:42:24;;;;;;;6.60;2.67;;;21.90;99.90;;;;;;5075453;28;20182;-73
2023/03/22 08:44:52;;;;;;;7.53;2.73;;;21.90;99.90;;;;;;5075208;28;20178;-73
2023/03/22 08:47:20;;;;;;;11.20;2.57;;;21.90;99.90;;;;;;5073863;28;20696;-73
2023/03/22 08:49:48;;;;;;;6.63;2.57;;;21.90;99.90;;;;;;5075266;28;20172;-74
2023/03/22 08:52:15;;;;;;;7.60;3.33;;;21.90;99.90;;;;;;5075164;28;20172;-73
2023/03/22 08:54:43;;;;;;;10.53;3.33;;;21.90;99.90;;;;;;5075186;28;20191;-73
2023/03/22 08:57:13;;;;;;;6.30;2.70;;;21.80;99.90;;;;;;5075242;28;20584;-73
2023/03/22 08:59:40;;;;;;;13.17;3.57;;;21.90;99.90;;;;;;5075156;28;20174;-73
2023/03/22 09:02:09;;;;;;;8.63;3.40;;;21.80;99.90;;;;;;5074994;28;20180;-73
2023/03/22 09:04:37;;;;;;;12.97;3.47;;;21.80;99.90;;;;;;5075024;28;20180;-73
2023/03/22 09:07:05;;;;;;;8.87;2.80;;;21.80;99.90;;;;;;5074818;28;20530;-74
2023/03/22 09:09:32;;;;;;;7.60;2.93;;;21.80;99.90;;;;;;5074960;28;20293;-73
2023/03/22 09:12:00;;;;;;;9.33;2.97;;;21.70;99.90;;;;;;5073676;28;20539;-74
2023/03/22 09:14:28;;;;;;;7.10;2.97;;;21.70;99.90;;;;;;5074522;28;20230;-72
2023/03/22 09:16:56;;;;;;;10.00;3.47;;;21.70;99.90;;;;;;5074700;28;20273;-73
2023/03/22 09:19:24;;;;;;;9.20;3.20;;;21.70;99.90;;;;;;5074559;28;20176;-73
2023/03/22 09:21:52;;;;;;;7.77;3.30;;;21.70;99.90;;;;;;5074629;28;20187;-72
2023/03/22 09:24:20;;;;;;;8.00;3.17;;;21.70;99.90;;;;;;5074671;28;20183;-73
2023/03/22 09:26:49;;;;;;;6.43;3.47;;;21.70;99.90;;;;;;5073005;28;20227;-73
2023/03/22 09:29:18;;;;;;;6.80;2.90;;;21.70;99.90;;;;;;5074966;28;20174;-73
2023/03/22 09:31:47;;;;;;;8.67;3.57;;;21.70;99.90;;;;;;5073503;28;20638;-72
2023/03/22 09:34:16;;;;;;;8.00;3.03;;;21.80;99.90;;;;;;5074364;28;20660;-72
2023/03/22 09:36:45;;;;;;;8.80;3.30;;;21.80;99.90;;;;;;5074208;28;20180;-72
2023/03/22 09:39:15;;;;;;;7.70;3.40;;;21.80;99.90;;;;;;5074282;28;20263;-73
2023/03/22 09:41:53;;;;;;;11.07;3.33;;;21.80;99.90;;;;;;5074296;28;20637;-73
2023/03/22 09:44:42;;;;;;;9.23;3.30;;;21.80;99.90;;;;;;5074299;28;20175;-74
2023/03/22 09:47:22;;;;;;;7.10;3.20;;;21.70;99.90;;;;;;5074104;28;20754;-73
2023/03/22 09:49:54;;;;;;;10.80;3.50;;;21.70;99.90;;;;;;5074237;28;20175;-73
2023/03/22 09:52:22;;;;;;;11.33;3.70;;;21.60;99.90;;;;;;5074146;28;20194;-73
2023/03/22 09:54:50;;;;;;;8.20;3.90;;;21.70;99.90;;;;;;5072549;28;20539;-72
2023/03/22 09:57:36;;;;;;;14.80;3.67;;;21.70;99.90;;;;;;5074076;28;20219;-72
2023/03/22 10:00:13;;;;;;;18.40;3.93;;;21.60;99.90;;;;;;5073912;28;20550;-73
2023/03/22 10:02:53;;;;;;;10.80;4.37;;;21.70;99.90;;;;;;5073835;28;20211;-72
2023/03/22 10:05:43;;;;;;;14.67;4.43;;;21.90;99.90;;;;;;5074309;28;20201;-72
2023/03/22 10:08:36;;;;;;;10.20;3.80;;;21.80;99.90;;;;;;5073468;28;20219;-72
2023/03/22 10:11:10;;;;;;;9.07;3.63;;;21.80;99.90;;;;;;5073510;28;20175;-72
2023/03/22 10:14:04;;;;;;;8.00;3.53;;;21.80;99.90;;;;;;5073717;28;20241;-73
2023/03/22 10:16:35;;;;;;;13.80;4.07;;;21.70;99.90;;;;;;5074027;28;20540;-73
2023/03/22 10:19:30;;;;;;;9.47;3.83;;;21.70;99.90;;;;;;5073523;28;20206;-73
2023/03/22 10:22:01;;;;;;;11.97;3.97;;;21.60;99.90;;;;;;5072156;28;20183;-73
2023/03/22 10:24:38;;;;;;;11.83;3.77;;;21.60;99.90;;;;;;5073349;28;20266;-72
2023/03/22 10:27:15;;;;;;;12.00;3.73;;;21.60;99.90;;;;;;5073406;28;20624;-73
2023/03/22 10:29:49;;;;;;;10.43;3.47;;;21.50;99.90;;;;;;5073298;28;20265;-72
2023/03/22 10:32:28;;;;;;;9.93;3.27;;;21.50;99.90;;;;;;5068990;28;20187;-71
2023/03/22 10:34:57;;;;;;;13.60;3.47;;;21.50;99.90;;;;;;5057493;28;20194;-70
2023/03/22 10:37:32;;;;;;;10.00;3.20;;;21.50;99.90;;;;;;5048674;28;20533;-70
2023/03/22 10:40:06;;;;;;;7.90;3.47;;;21.50;99.90;;;;;;5052841;28;20185;-70
2023/03/22 10:42:38;;;;;;;13.60;3.63;;;21.50;99.90;;;;;;5049238;28;20177;-70
2023/03/22 10:45:14;;;;;;;9.67;3.40;;;21.40;99.90;;;;;;5051321;28;20566;-70
2023/03/22 10:47:47;;;;;;;10.00;3.17;;;21.40;99.90;;;;;;5053051;28;20208;-71
2023/03/22 10:50:32;;;;;;;10.70;4.03;;;21.40;99.90;;;;;;5052936;28;20246;-70
2023/03/22 10:53:03;;;;;;;11.40;3.50;;;21.40;99.90;;;;;;5037285;28;20189;-68
2023/03/22 10:55:31;;;;;;;16.47;3.60;;;21.30;99.90;;;;;;5065226;28;20274;-69
2023/03/22 10:58:20;;;;;;;11.80;3.50;;;21.30;99.90;;;;;;5070800;28;20215;-69
2023/03/22 11:00:53;;;;;;;9.37;3.63;;;21.20;99.90;;;;;;5057162;28;20191;-69
2023/03/22 11:03:38;;;;;;;8.73;3.27;;;21.20;99.90;;;;;;5067944;28;20739;-69
2023/03/22 11:06:10;;;;;;;7.43;3.30;;;21.20;99.90;;;;;;5071347;28;20524;-69
2023/03/22 11:08:53;;;;;;;10.17;3.27;;;21.20;99.90;;;;;;5072440;28;20202;-69
2023/03/22 11:11:27;;;;;;;8.83;2.67;;;21.20;99.90;;;;;;5050260;28;20541;-70
2023/03/22 11:14:03;;;;;;;10.50;3.20;;;21.10;99.90;;;;;;5053143;28;20593;-69
2023/03/22 11:16:41;;;;;;;8.33;3.70;;;21.00;99.90;;;;;;5064714;28;20191;-69
2023/03/22 11:19:27;;;;;;;7.53;2.87;;;21.00;99.90;;;;;;5032391;28;20723;-68
2023/03/22 11:21:59;;;;;;;7.80;3.60;;;20.90;99.90;;;;;;5054117;28;20199;-68
2023/03/22 11:24:29;;;;;;;10.67;3.53;;;20.80;99.90;;;;;;5058964;28;20178;-70
2023/03/22 11:27:24;;;;;;;6.87;2.77;;;20.80;99.90;;;;;;5071115;28;20226;-70
2023/03/22 11:29:57;;;;;;;8.50;3.53;;;20.80;99.90;;;;;;5062327;28;20207;-71
2023/03/22 11:32:36;;;;;;;7.07;3.47;;;20.80;99.90;;;;;;5069261;28;20641;-70
2023/03/22 11:35:16;;;;;;;10.33;3.70;;;20.80;99.90;;;;;;5056632;28;20183;-70
2023/03/22 11:37:46;;;;;;;12.23;3.90;;;20.70;99.90;;;;;;5067180;28;20199;-71
2023/03/22 11:40:17;;;;;;;11.83;3.40;;;20.70;99.90;;;;;;5049826;28;20184;-69
2023/03/22 11:42:46;;;;;;;9.33;3.60;;;20.60;99.90;;;;;;5063530;28;20184;-70
2023/03/22 11:45:31;;;;;;;9.60;3.90;;;20.50;99.90;;;;;;5050566;28;20233;-69
2023/03/22 11:48:28;;;;;;;8.63;3.30;;;20.40;99.90;;;;;;5032153;28;20220;-70
2023/03/22 11:51:12;;;;;;;8.07;3.30;;;20.30;99.90;;;;;;5064433;28;20707;-70
2023/03/22 11:53:47;;;;;;;14.07;3.30;;;20.30;99.90;;;;;;5069068;28;20180;-69
2023/03/22 11:56:27;;;;;;;9.63;3.30;;;20.30;99.90;;;;;;5075789;28;20176;-70
2023/03/22 11:59:16;;;;;;;11.20;3.70;;;20.30;99.90;;;;;;5067061;28;20518;-70
2023/03/22 12:01:56;;;;;;;7.90;3.20;;;20.30;99.90;;;;;;5070841;28;20196;-70
2023/03/22 12:04:30;;;;;;;8.87;3.40;;;20.30;99.90;;;;;;5050168;28;20605;-70
2023/03/22 12:07:01;;;;;;;12.87;4.10;;;20.20;99.90;;;;;;5057509;28;20300;-70
2023/03/22 12:09:46;;;;;;;9.27;3.87;;;20.10;99.90;;;;;;5055725;28;20654;-70
2023/03/22 12:12:36;;;;;;;14.97;4.03;;;20.10;99.90;;;;;;5057781;28;20187;-70
2023/03/22 12:15:32;;;;;;;11.30;5.03;;;20.10;99.90;;;;;;5070617;28;20259;-70
2023/03/22 12:18:05;;;;;;;8.80;3.83;;;20.10;99.90;;;;;;5038267;28;20189;-70
2023/03/22 12:20:33;;;;;;;8.33;3.90;;;20.00;99.90;;;;;;5056290;28;20208;-70
2023/03/22 12:23:02;;;;;;;12.33;4.03;;;20.00;99.90;;;;;;5061706;28;20720;-70
2023/03/22 12:25:35;;;;;;;12.97;4.67;;;19.90;99.90;;;;;;5061920;28;20191;-70
2023/03/22 12:28:08;;;;;;;9.27;3.70;;;19.90;99.90;;;;;;5071423;28;20212;-70
2023/03/22 12:30:46;;;;;;;8.67;3.43;;;19.90;99.90;;;;;;5073303;28;20180;-70
2023/03/22 12:33:30;;;;;;;7.33;3.87;;;19.90;99.90;;;;;;5073840;28;20200;-69
2023/03/22 12:36:06;;;;;;;6.13;3.20;;;19.90;99.90;;;;;;5071033;28;20191;-69
2023/03/22 12:38:59;;;;;;;10.90;3.40;;;19.90;99.90;;;;;;5071241;28;20266;-69
2023/03/22 12:41:43;;;;;;;12.20;4.13;;;19.90;99.90;;;;;;5075111;28;20232;-69
2023/03/22 12:44:38;;;;;;;9.40;4.10;;;20.00;99.90;;;;;;5072823;28;20211;-69
2023/03/22 12:47:15;;;;;;;5.87;3.30;;;20.00;99.90;;;;;;5040232;28;20216;-70
2023/03/22 12:49:58;;;;;;;9.50;3.43;;;20.00;99.90;;;;;;5046142;28;20237;-70
2023/03/22 12:52:29;;;;;;;11.47;3.73;;;20.00;99.90;;;;;;5070269;28;20183;-70
2023/03/22 12:54:58;;;;;;;7.77;3.63;;;20.00;99.90;;;;;;5071427;28;20192;-70
2023/03/22 12:57:26;;;;;;;6.53;3.20;;;20.00;99.90;;;;;;5068545;28;20206;-69
2023/03/22 12:59:59;;;;;;;9.90;3.80;;;19.90;99.90;;;;;;5066633;28;20179;-69
2023/03/22 13:02:34;;;;;;;12.20;3.53;;;20.00;99.90;;;;;;5059036;28;20244;-69
2023/03/22 13:05:10;;;;;;;9.10;3.20;;;20.00;99.90;;;;;;5072809;28;20527;-70
2023/03/22 13:08:02;;;;;;;9.37;3.87;;;19.90;99.90;;;;;;5074037;28;20208;-70
2023/03/22 13:10:33;;;;;;;10.20;3.53;;;19.90;99.90;;;;;;5061570;28;20200;-69